Time;durP1;ratioP1;P1;durP2;ratioP2;P2;SDS_P1;SDS_P2;PMS_P1;PMS_P2;Temp;Humidity;BMP_temperature;BMP_pressure;BME280_temperature;BME280_humidity;BME280_pressure;Samples;Min_cycle;Max_cycle;Signal;HPM_P1;HPM_P2
2023/10/31 00:00:28;;;;;;;30.13;16.88;;;;;;;9.12;100.00;99394.25;4915446;29;20058;-82
2023/10/31 00:02:53;;;;;;;34.88;18.13;;;;;;;9.11;100.00;99387.28;4915387;29;20024;-82
2023/10/31 00:05:19;;;;;;;31.83;16.60;;;;;;;9.08;100.00;99387.78;4915406;29;20024;-83
2023/10/31 00:07:44;;;;;;;29.98;16.13;;;;;;;9.15;100.00;99401.75;4915296;29;20064;-81
2023/10/31 00:10:09;;;;;;;28.55;17.75;;;;;;;9.05;100.00;99398.91;4915272;29;20028;-80
2023/10/31 00:12:34;;;;;;;23.65;13.70;;;;;;;9.08;100.00;99411.75;4915417;29;20036;-81
2023/10/31 00:15:00;;;;;;;25.30;15.63;;;;;;;8.97;100.00;99395.59;4898526;29;20202;-81
2023/10/31 00:17:25;;;;;;;26.90;12.75;;;;;;;8.99;100.00;99409.50;4898550;29;20035;-81
2023/10/31 00:19:50;;;;;;;17.07;9.50;;;;;;;8.98;100.00;99420.41;4898186;29;20119;-82
2023/10/31 00:22:16;;;;;;;16.17;9.45;;;;;;;8.89;100.00;99413.81;4915193;29;20816;-81
2023/10/31 00:24:41;;;;;;;14.32;9.38;;;;;;;8.85;100.00;99416.16;4915192;29;20145;-80
2023/10/31 00:27:06;;;;;;;18.03;9.00;;;;;;;8.83;100.00;99415.56;4915308;29;20035;-80
2023/10/31 00:29:32;;;;;;;19.55;9.77;;;;;;;8.85;100.00;99415.34;4898157;29;20288;-81
2023/10/31 00:31:57;;;;;;;15.82;8.45;;;;;;;8.87;100.00;99416.72;4898095;29;20075;-80
2023/10/31 00:34:22;;;;;;;16.80;9.57;;;;;;;8.85;100.00;99420.66;4915082;29;20038;-81
2023/10/31 00:36:47;;;;;;;16.80;8.10;;;;;;;8.79;100.00;99419.75;4914967;29;20272;-81
2023/10/31 00:39:13;;;;;;;13.35;8.15;;;;;;;8.81;100.00;99425.66;4915027;29;20071;-82
2023/10/31 00:41:44;;;;;;;18.58;7.95;;;;;;;8.77;100.00;99424.53;4897960;29;20036;-81
2023/10/31 00:44:09;;;;;;;16.38;7.78;;;;;;;8.78;100.00;99417.34;4914983;29;20059;-82
2023/10/31 00:46:34;;;;;;;14.77;7.40;;;;;;;8.80;100.00;99431.22;4914863;29;20524;-81
2023/10/31 00:48:59;;;;;;;12.55;6.28;;;;;;;8.81;100.00;99438.19;4914911;29;20036;-81
2023/10/31 00:51:25;;;;;;;16.03;6.80;;;;;;;8.82;100.00;99445.94;4914837;29;20354;-81
2023/10/31 00:53:50;;;;;;;15.77;6.40;;;;;;;8.77;100.00;99437.03;4898645;29;20282;-81
2023/10/31 00:56:15;;;;;;;12.15;5.47;;;;;;;8.80;100.00;99448.03;4918237;29;20335;-81
2023/10/31 00:58:41;;;;;;;14.48;6.80;;;;;;;8.77;100.00;99445.03;4918131;29;20040;-80
2023/10/31 01:01:06;;;;;;;14.15;6.10;;;;;;;8.78;100.00;99450.13;4918029;29;20032;-80
2023/10/31 01:03:31;;;;;;;13.05;5.72;;;;;;;8.82;100.00;99461.94;4901175;29;20042;-80
2023/10/31 01:05:56;;;;;;;9.98;5.20;;;;;;;8.86;100.00;99463.06;4917876;29;20028;-80
2023/10/31 01:08:22;;;;;;;13.02;5.65;;;;;;;8.80;100.00;99450.69;4917919;29;20042;-81
2023/10/31 01:10:47;;;;;;;9.02;5.15;;;;;;;8.79;100.00;99461.59;4917913;29;20021;-80
2023/10/31 01:13:12;;;;;;;13.68;5.50;;;;;;;8.74;100.00;99456.97;4917855;29;20036;-80
2023/10/31 01:15:38;;;;;;;12.70;5.60;;;;;;;8.82;100.00;99471.78;4900902;29;20043;-80
2023/10/31 01:18:03;;;;;;;18.00;6.93;;;;;;;8.77;100.00;99464.50;4917696;29;20438;-80
2023/10/31 01:20:28;;;;;;;16.67;7.30;;;;;;;8.69;100.00;99456.88;4916538;29;20032;-84
2023/10/31 01:22:54;;;;;;;26.17;9.27;;;;;;;8.74;100.00;99466.81;4916691;29;20151;-82
2023/10/31 01:25:19;;;;;;;25.27;9.97;;;;;;;8.82;100.00;99469.94;4917682;29;20053;-81
2023/10/31 01:27:44;;;;;;;25.85;11.82;;;;;;;8.79;100.00;99466.94;4900606;29;20284;-81
2023/10/31 01:30:10;;;;;;;37.28;15.93;;;;;;;8.77;100.00;99466.34;4900621;29;20039;-82
2023/10/31 01:32:36;;;;;;;35.67;15.50;;;;;;;8.76;100.00;99465.53;4917600;29;20078;-81
2023/10/31 01:35:01;;;;;;;43.40;17.67;;;;;;;8.80;100.00;99471.22;4900611;29;20069;-80
2023/10/31 01:37:27;;;;;;;51.15;20.83;;;;;;;8.76;100.00;99476.22;4917450;29;20039;-81
2023/10/31 01:39:52;;;;;;;44.13;17.95;;;;;;;8.75;100.00;99461.25;4900496;29;20091;-82
2023/10/31 01:42:18;;;;;;;49.55;21.50;;;;;;;8.74;100.00;99456.97;4917464;29;20039;-83
2023/10/31 01:44:43;;;;;;;47.85;19.85;;;;;;;8.86;100.00;99473.72;4900682;29;20470;-81
2023/10/31 01:47:08;;;;;;;56.40;22.15;;;;;;;8.83;100.00;99479.53;4900360;29;20485;-81
2023/10/31 01:49:36;;;;;;;51.35;22.08;;;;;;;8.83;100.00;99468.88;4900320;29;20111;-81
2023/10/31 01:52:03;;;;;;;55.75;22.10;;;;;;;8.80;100.00;99466.69;4917459;29;20032;-82
2023/10/31 01:54:29;;;;;;;57.95;25.30;;;;;;;8.87;100.00;99474.53;4900302;29;20035;-81
2023/10/31 01:56:57;;;;;;;63.45;24.88;;;;;;;8.85;100.00;99466.78;4900361;29;20032;-81
2023/10/31 01:59:24;;;;;;;61.78;24.50;;;;;;;8.79;100.00;99465.06;4917240;29;20032;-82
2023/10/31 02:01:50;;;;;;;60.85;24.45;;;;;;;8.74;100.00;99456.97;4917304;29;20477;-83
2023/10/31 02:04:15;;;;;;;67.20;25.63;;;;;;;8.73;100.00;99474.03;4916907;29;20032;-82
2023/10/31 02:06:40;;;;;;;82.72;32.50;;;;;;;8.78;100.00;99475.97;4917072;29;20047;-83
2023/10/31 02:09:06;;;;;;;71.20;29.10;;;;;;;8.76;100.00;99483.38;4900248;29;20024;-83
2023/10/31 02:11:32;;;;;;;82.43;30.92;;;;;;;8.72;100.00;99480.38;4917036;29;20331;-82
2023/10/31 02:13:57;;;;;;;86.95;32.30;;;;;;;8.76;100.00;99475.41;4917023;29;20387;-82
2023/10/31 02:16:22;;;;;;;75.65;28.88;;;;;;;8.77;100.00;99477.00;4900074;29;20082;-82
2023/10/31 02:18:48;;;;;;;85.15;29.75;;;;;;;8.74;100.00;99480.16;4916788;29;20039;-82
2023/10/31 02:21:13;;;;;;;80.40;30.92;;;;;;;8.72;100.00;99477.72;4899853;29;20035;-82
2023/10/31 02:23:39;;;;;;;84.30;32.20;;;;;;;8.87;100.00;99486.00;4916869;29;20381;-82
2023/10/31 02:26:04;;;;;;;81.85;30.27;;;;;;;8.86;100.00;99478.25;4916806;29;20036;-82
2023/10/31 02:28:30;;;;;;;79.15;29.45;;;;;;;8.94;100.00;99491.19;4916826;29;20032;-81
2023/10/31 02:30:56;;;;;;;86.43;30.92;;;;;;;8.92;100.00;99478.13;4916793;29;20393;-81
2023/10/31 02:33:21;;;;;;;77.03;30.95;;;;;;;9.06;100.00;99483.19;4916662;29;20056;-81
2023/10/31 02:35:46;;;;;;;79.07;32.00;;;;;;;9.03;100.00;99486.34;4916640;29;20071;-81
2023/10/31 02:38:12;;;;;;;82.75;31.55;;;;;;;9.02;100.00;99477.53;4899596;29;20032;-80
2023/10/31 02:40:37;;;;;;;90.32;32.97;;;;;;;9.00;100.00;99485.75;4899667;29;20087;-80
2023/10/31 02:43:02;;;;;;;84.28;33.50;;;;;;;9.04;100.00;99486.09;4916519;29;20067;-81
2023/10/31 02:45:28;;;;;;;96.38;37.35;;;;;;;9.04;100.00;99485.28;4899457;29;20032;-80
2023/10/31 02:47:53;;;;;;;102.95;38.20;;;;;;;8.99;100.00;99499.31;4916393;29;20032;-80
2023/10/31 02:50:18;;;;;;;86.45;34.75;;;;;;;8.99;100.00;99496.66;4916426;29;20054;-82
2023/10/31 02:52:44;;;;;;;89.22;36.00;;;;;;;9.08;100.00;99497.09;4899659;29;20028;-82
2023/10/31 02:55:09;;;;;;;89.33;34.23;;;;;;;9.09;100.00;99504.03;4916409;29;20035;-80
2023/10/31 02:57:34;;;;;;;92.88;35.05;;;;;;;9.03;100.00;99489.81;4916208;29;20352;-83
2023/10/31 03:00:00;;;;;;;93.45;36.50;;;;;;;9.05;100.00;99494.91;4916350;29;20163;-82
2023/10/31 03:02:25;;;;;;;95.03;33.55;;;;;;;9.09;100.00;99509.38;4916307;29;20028;-82
2023/10/31 03:04:50;;;;;;;87.93;33.80;;;;;;;9.12;100.00;99517.69;4916284;29;20039;-82
2023/10/31 03:07:15;;;;;;;77.00;32.78;;;;;;;9.13;100.00;99502.50;4899158;29;20028;-83
2023/10/31 03:09:41;;;;;;;79.47;31.83;;;;;;;9.09;100.00;99520.03;4899073;29;20043;-82
2023/10/31 03:12:06;;;;;;;89.93;35.55;;;;;;;9.10;100.00;99521.66;4899045;29;20035;-81
2023/10/31 03:14:32;;;;;;;86.82;34.65;;;;;;;9.18;100.00;99524.75;4916175;29;20036;-81
2023/10/31 03:16:57;;;;;;;84.53;34.75;;;;;;;9.07;100.00;99522.94;4915793;29;20027;-82
2023/10/31 03:19:22;;;;;;;82.53;34.67;;;;;;;9.11;100.00;99523.28;4898984;29;20606;-82
2023/10/31 03:21:47;;;;;;;97.20;36.47;;;;;;;9.07;100.00;99516.81;4915891;29;20339;-83
2023/10/31 03:24:13;;;;;;;81.28;35.95;;;;;;;9.19;100.00;99526.38;4916025;29;20284;-82
2023/10/31 03:26:38;;;;;;;55.00;28.03;;;;;;;9.12;100.00;99536.38;4915944;29;20039;-83
2023/10/31 03:29:03;;;;;;;92.88;35.38;;;;;;;9.09;100.00;99542.19;4916135;29;20276;-81
2023/10/31 03:31:29;;;;;;;101.78;39.13;;;;;;;9.04;100.00;99542.09;4898864;29;20024;-82
2023/10/31 03:33:54;;;;;;;96.57;38.53;;;;;;;9.14;100.00;99552.13;4915758;29;20025;-81
2023/10/31 03:36:19;;;;;;;95.38;37.85;;;;;;;9.12;100.00;99549.72;4898715;29;20396;-82
2023/10/31 03:38:45;;;;;;;92.57;38.42;;;;;;;9.10;100.00;99543.81;4915784;29;20071;-82
2023/10/31 03:41:10;;;;;;;110.53;41.30;;;;;;;9.09;100.00;99563.50;4915768;29;20107;-82
2023/10/31 03:43:36;;;;;;;86.32;36.60;;;;;;;9.06;100.00;99558.66;4915723;29;20370;-81
2023/10/31 03:46:01;;;;;;;102.55;40.63;;;;;;;9.08;100.00;99566.41;4915568;29;20036;-82
2023/10/31 03:48:26;;;;;;;102.05;39.67;;;;;;;9.04;100.00;99557.28;4915622;29;20110;-82
2023/10/31 03:50:52;;;;;;;106.65;39.28;;;;;;;9.11;100.00;99573.94;4898625;29;20444;-82
2023/10/31 03:53:17;;;;;;;106.10;40.30;;;;;;;9.04;100.00;99567.94;4915564;29;20032;-83
2023/10/31 03:55:43;;;;;;;99.60;39.40;;;;;;;9.02;100.00;99565.50;4898518;29;20039;-84
2023/10/31 03:58:08;;;;;;;106.97;39.08;;;;;;;9.03;100.00;99572.47;4915544;29;20039;-81
2023/10/31 04:00:33;;;;;;;105.65;41.38;;;;;;;9.05;100.00;99583.69;4898399;29;20028;-83
2023/10/31 04:02:59;;;;;;;111.97;39.63;;;;;;;9.05;100.00;99582.88;4915460;29;20441;-81
2023/10/31 04:05:24;;;;;;;103.45;39.72;;;;;;;9.14;100.00;99590.28;4898346;29;20052;-82
2023/10/31 04:07:49;;;;;;;91.93;36.00;;;;;;;9.10;100.00;99585.66;4915453;29;20028;-84
2023/10/31 04:10:16;;;;;;;82.10;34.70;;;;;;;9.12;100.00;99597.72;4915398;29;20389;-83
2023/10/31 04:12:41;;;;;;;102.28;38.60;;;;;;;9.08;100.00;99593.09;4915275;29;20044;-83
2023/10/31 04:15:08;;;;;;;108.20;40.92;;;;;;;9.15;100.00;99597.22;4914014;29;20396;-83
2023/10/31 04:17:34;;;;;;;93.38;36.70;;;;;;;9.04;100.00;99587.41;4898289;29;20071;-83
2023/10/31 04:19:59;;;;;;;101.13;40.25;;;;;;;9.08;100.00;99598.41;4915243;29;20032;-83
2023/10/31 04:22:24;;;;;;;107.13;44.00;;;;;;;9.07;100.00;99608.28;4898203;29;20028;-83
2023/10/31 04:24:49;;;;;;;102.20;41.00;;;;;;;9.05;100.00;99604.22;4898374;29;20028;-83
2023/10/31 04:27:15;;;;;;;91.47;36.97;;;;;;;9.07;100.00;99612.78;4898120;29;20028;-84
2023/10/31 04:29:40;;;;;;;106.75;41.85;;;;;;;8.98;100.00;99605.16;4918478;29;20477;-85
2023/10/31 04:32:06;;;;;;;91.90;36.42;;;;;;;9.00;100.00;99605.75;4918616;29;20130;-85
2023/10/31 04:34:31;;;;;;;99.55;39.90;;;;;;;9.06;100.00;99603.97;4917329;29;20392;-85
2023/10/31 04:36:57;;;;;;;90.22;36.75;;;;;;;9.02;100.00;99605.50;4901506;29;20039;-85
2023/10/31 04:39:22;;;;;;;88.20;34.13;;;;;;;9.02;100.00;99610.03;4918621;29;20035;-85
2023/10/31 04:41:47;;;;;;;83.32;31.00;;;;;;;9.00;100.00;99619.06;4901497;29;20036;-84
2023/10/31 04:44:13;;;;;;;91.65;34.17;;;;;;;8.99;100.00;99630.78;4901424;29;20461;-83
2023/10/31 04:46:38;;;;;;;74.43;30.88;;;;;;;8.93;100.00;99609.53;4901174;29;20123;-84
2023/10/31 04:49:04;;;;;;;75.60;32.28;;;;;;;8.90;100.00;99629.50;4918240;29;20055;-82
2023/10/31 04:51:35;;;;;;;76.10;31.63;;;;;;;8.97;100.00;99640.88;4901253;29;20362;-82
2023/10/31 04:54:01;;;;;;;79.78;33.55;;;;;;;8.99;100.00;99640.63;4918204;29;20070;-82
2023/10/31 04:56:26;;;;;;;84.15;35.03;;;;;;;8.91;100.00;99647.09;4918145;29;20493;-82
2023/10/31 04:58:51;;;;;;;62.10;26.67;;;;;;;8.95;100.00;99636.78;4901167;29;20032;-83
2023/10/31 05:01:17;;;;;;;61.97;28.08;;;;;;;8.97;100.00;99650.72;4901240;29;20833;-84
2023/10/31 05:03:42;;;;;;;79.43;32.00;;;;;;;8.92;100.00;99645.25;4916822;29;20119;-84
2023/10/31 05:06:08;;;;;;;64.93;28.50;;;;;;;8.88;100.00;99639.56;4900931;29;20028;-85
2023/10/31 05:08:33;;;;;;;65.03;25.63;;;;;;;8.80;100.00;99637.25;4901009;29;20088;-85
2023/10/31 05:10:59;;;;;;;68.35;29.13;;;;;;;8.88;100.00;99654.75;4917962;29;20078;-82
2023/10/31 05:13:24;;;;;;;64.38;27.08;;;;;;;8.91;100.00;99656.94;4917894;29;20034;-82
2023/10/31 05:15:50;;;;;;;62.05;25.55;;;;;;;8.90;100.00;99660.66;4917809;29;20091;-83
2023/10/31 05:18:16;;;;;;;64.72;29.55;;;;;;;8.90;100.00;99650.00;4917806;29;20039;-83
2023/10/31 05:20:41;;;;;;;60.60;26.80;;;;;;;8.90;100.00;99647.34;4900747;29;20473;-83
2023/10/31 05:23:07;;;;;;;66.25;28.73;;;;;;;8.82;100.00;99635.19;4917760;29;20036;-83
2023/10/31 05:25:32;;;;;;;68.95;30.77;;;;;;;8.86;100.00;99643.50;4900625;29;20095;-83
2023/10/31 05:27:59;;;;;;;68.25;28.65;;;;;;;8.88;100.00;99636.09;4917750;29;20483;-82
2023/10/31 05:30:24;;;;;;;67.25;29.27;;;;;;;8.85;100.00;99636.56;4917646;29;20028;-82
2023/10/31 05:32:50;;;;;;;71.15;29.98;;;;;;;8.84;100.00;99646.41;4917600;29;20032;-81
2023/10/31 05:35:15;;;;;;;66.32;29.35;;;;;;;8.85;100.00;99653.38;4917618;29;20133;-82
2023/10/31 05:37:40;;;;;;;74.28;30.40;;;;;;;8.79;100.00;99653.50;4917822;29;20043;-82
2023/10/31 05:40:06;;;;;;;60.10;26.92;;;;;;;8.81;100.00;99662.06;4899935;29;20031;-82
2023/10/31 05:42:32;;;;;;;63.53;28.02;;;;;;;8.80;100.00;99668.44;4917539;29;20038;-83
2023/10/31 05:44:57;;;;;;;63.40;27.57;;;;;;;8.73;100.00;99668.56;4917396;29;20033;-83
2023/10/31 05:47:22;;;;;;;65.30;28.63;;;;;;;8.78;100.00;99686.53;4900365;29;20303;-82
2023/10/31 05:49:48;;;;;;;68.22;29.67;;;;;;;8.74;100.00;99688.03;4900411;29;20043;-82
2023/10/31 05:52:13;;;;;;;61.85;28.00;;;;;;;8.81;100.00;99697.53;4917413;29;20448;-82
2023/10/31 05:54:39;;;;;;;63.88;27.20;;;;;;;8.83;100.00;99699.97;4900294;29;20044;-83
2023/10/31 05:57:04;;;;;;;66.78;29.15;;;;;;;8.78;100.00;99686.53;4917312;29;20481;-82
2023/10/31 05:59:29;;;;;;;70.35;30.17;;;;;;;8.80;100.00;99693.25;4900245;29;20036;-82
2023/10/31 06:01:55;;;;;;;63.03;28.53;;;;;;;8.78;100.00;99691.84;4917198;29;20457;-81
2023/10/31 06:04:20;;;;;;;58.92;27.60;;;;;;;8.80;100.00;99700.41;4917190;29;20276;-82
2023/10/31 06:06:45;;;;;;;58.10;27.67;;;;;;;8.80;100.00;99706.56;4917192;29;20032;-83
2023/10/31 06:09:11;;;;;;;62.33;28.30;;;;;;;8.77;100.00;99715.03;4900290;29;20309;-83
2023/10/31 06:11:36;;;;;;;61.03;27.23;;;;;;;8.71;100.00;99717.81;4917118;29;20336;-83
2023/10/31 06:14:01;;;;;;;57.72;26.40;;;;;;;8.76;100.00;99725.91;4900165;29;20024;-84
2023/10/31 06:16:27;;;;;;;51.83;27.27;;;;;;;8.71;100.00;99723.94;4917200;29;20036;-83
2023/10/31 06:18:52;;;;;;;55.35;26.33;;;;;;;8.65;100.00;99738.16;4899980;29;20421;-83
2023/10/31 06:21:17;;;;;;;56.30;26.02;;;;;;;8.58;100.00;99727.59;4900046;29;20477;-84
2023/10/31 06:23:45;;;;;;;49.47;23.65;;;;;;;8.60;100.00;99740.69;4899899;29;20028;-84
2023/10/31 06:26:10;;;;;;;52.90;25.23;;;;;;;8.48;100.00;99732.69;4899821;29;20107;-82
2023/10/31 06:28:37;;;;;;;50.67;24.77;;;;;;;8.43;100.00;99729.91;4916839;29;20027;-82
2023/10/31 06:31:02;;;;;;;50.47;23.52;;;;;;;8.37;100.00;99726.28;4900230;29;20044;-82
2023/10/31 06:33:28;;;;;;;51.05;24.00;;;;;;;8.41;100.00;99734.66;4916800;29;20040;-83
2023/10/31 06:35:53;;;;;;;56.17;24.80;;;;;;;8.50;100.00;99740.44;4916778;29;20032;-83
2023/10/31 06:38:19;;;;;;;54.60;23.92;;;;;;;8.55;100.00;99746.72;4916733;29;20020;-84
2023/10/31 06:40:44;;;;;;;58.67;26.33;;;;;;;8.64;100.00;99760.50;4916719;29;20119;-83
2023/10/31 06:43:11;;;;;;;55.33;25.98;;;;;;;8.66;100.00;99755.78;4899652;29;20035;-83
2023/10/31 06:45:37;;;;;;;57.03;26.58;;;;;;;8.68;100.00;99759.84;4916524;29;20039;-83
2023/10/31 06:48:03;;;;;;;57.88;26.15;;;;;;;8.56;100.00;99739.53;4916495;29;20036;-83
2023/10/31 06:50:28;;;;;;;61.22;28.00;;;;;;;8.68;100.00;99759.84;4899422;29;20401;-83
2023/10/31 06:52:54;;;;;;;52.67;25.52;;;;;;;8.58;100.00;99750.78;4898563;29;20038;-84
2023/10/31 06:55:19;;;;;;;56.83;26.67;;;;;;;8.73;100.00;99767.16;4899365;29;20052;-84
2023/10/31 06:57:45;;;;;;;61.70;29.13;;;;;;;8.68;100.00;99767.84;4916497;29;20032;-84
2023/10/31 07:00:11;;;;;;;54.33;26.08;;;;;;;8.79;100.00;99779.56;4899363;29;20084;-87
2023/10/31 07:02:37;;;;;;;46.88;23.55;;;;;;;8.73;100.00;99772.50;4899552;29;20036;-84
2023/10/31 07:05:03;;;;;;;58.67;27.60;;;;;;;8.69;100.00;99788.13;4899115;29;20042;-83
2023/10/31 07:07:29;;;;;;;56.38;27.60;;;;;;;8.72;100.00;99781.53;4916004;29;20036;-83
2023/10/31 07:09:54;;;;;;;56.38;26.75;;;;;;;8.75;100.00;99785.59;4899057;29;20036;-82
2023/10/31 07:12:19;;;;;;;55.38;25.85;;;;;;;8.71;100.00;99776.44;4899074;29;20145;-81
2023/10/31 07:14:45;;;;;;;51.38;25.08;;;;;;;8.79;100.00;99787.56;4916100;29;20051;-81
2023/10/31 07:17:10;;;;;;;53.95;25.83;;;;;;;8.78;100.00;99779.81;4899024;29;20032;-82
2023/10/31 07:19:35;;;;;;;53.55;26.10;;;;;;;8.86;100.00;99790.94;4899026;29;20032;-82
2023/10/31 07:22:01;;;;;;;53.58;25.48;;;;;;;8.79;100.00;99781.44;4899143;29;20393;-83
2023/10/31 07:24:27;;;;;;;49.90;24.88;;;;;;;8.91;100.00;99787.59;4899000;29;20071;-82
2023/10/31 07:26:53;;;;;;;48.83;24.65;;;;;;;8.94;100.00;99792.44;4898846;29;20111;-83
2023/10/31 07:29:18;;;;;;;51.22;24.58;;;;;;;8.90;100.00;99777.97;4898900;29;20103;-83
2023/10/31 07:31:44;;;;;;;45.65;24.63;;;;;;;8.92;100.00;99790.00;4898814;29;20032;-83
2023/10/31 07:34:11;;;;;;;41.90;20.50;;;;;;;8.94;100.00;99797.78;4914722;29;20028;-82
2023/10/31 07:36:36;;;;;;;44.60;24.42;;;;;;;8.87;100.00;99800.56;4898838;29;20295;-82
2023/10/31 07:39:03;;;;;;;45.17;24.45;;;;;;;8.99;100.00;99803.28;4898798;29;20020;-83
2023/10/31 07:41:29;;;;;;;45.00;22.10;;;;;;;9.31;100.00;99799.25;4915951;29;20024;-81
2023/10/31 07:43:54;;;;;;;47.22;25.77;;;;;;;9.45;100.00;99804.34;4915736;29;20044;-82
2023/10/31 07:46:20;;;;;;;44.92;24.27;;;;;;;9.62;100.00;99799.94;4915723;29;20080;-82
2023/10/31 07:48:45;;;;;;;44.30;25.25;;;;;;;9.70;100.00;99804.91;4898746;29;20040;-82
2023/10/31 07:51:10;;;;;;;44.15;25.40;;;;;;;9.79;100.00;99800.81;4915673;29;20024;-80
2023/10/31 07:53:35;;;;;;;38.13;23.00;;;;;;;9.78;100.00;99801.06;4898808;29;20179;-81
2023/10/31 07:56:01;;;;;;;41.10;24.27;;;;;;;9.98;100.00;99800.69;4915453;29;20040;-82
2023/10/31 07:58:26;;;;;;;40.35;23.27;;;;;;;9.88;100.00;99806.63;4915572;29;20079;-80
2023/10/31 08:00:51;;;;;;;37.88;22.50;;;;;;;9.79;100.00;99813.38;4898387;29;20028;-79
2023/10/31 08:03:17;;;;;;;37.97;24.35;;;;;;;9.83;100.00;99809.19;4914993;29;20040;-81
2023/10/31 08:05:42;;;;;;;38.90;22.55;;;;;;;10.01;100.00;99818.91;4898303;29;20119;-80
2023/10/31 08:08:07;;;;;;;38.97;24.42;;;;;;;10.12;100.00;99813.56;4898329;29;20039;-81
2023/10/31 08:10:34;;;;;;;34.42;23.70;;;;;;;10.26;100.00;99818.66;4915532;29;20544;-82
2023/10/31 08:12:59;;;;;;;37.63;23.83;;;;;;;10.20;100.00;99826.56;4915351;29;20036;-83
2023/10/31 08:15:24;;;;;;;34.80;23.60;;;;;;;10.11;100.00;99833.28;4898312;29;20043;-81
2023/10/31 08:17:50;;;;;;;36.67;24.30;;;;;;;10.13;100.00;99831.22;4898217;29;20384;-83
2023/10/31 08:20:15;;;;;;;36.88;23.67;;;;;;;10.23;100.00;99841.31;4898217;29;20287;-84
2023/10/31 08:22:42;;;;;;;34.42;22.33;;;;;;;10.10;100.00;99830.84;4898183;29;20032;-82
2023/10/31 08:25:08;;;;;;;38.28;23.50;;;;;;;10.19;100.00;99845.47;4915217;29;20481;-84
2023/10/31 08:27:33;;;;;;;38.60;24.40;;;;;;;10.00;100.00;99836.78;4915094;29;20230;-84
2023/10/31 08:29:59;;;;;;;38.60;25.45;;;;;;;9.93;100.00;99852.94;4898228;29;20039;-82
2023/10/31 08:32:24;;;;;;;37.70;25.07;;;;;;;10.07;100.00;99845.47;4898047;29;20029;-82
2023/10/31 08:34:50;;;;;;;40.83;25.05;;;;;;;10.17;100.00;99859.06;4915110;29;20284;-83
2023/10/31 08:37:15;;;;;;;37.35;24.02;;;;;;;10.31;100.00;99861.50;4898120;29;20385;-85
2023/10/31 08:39:40;;;;;;;42.05;25.42;;;;;;;10.11;100.00;99837.81;4898093;29;20083;-82
2023/10/31 08:42:06;;;;;;;38.75;24.08;;;;;;;10.09;100.00;99839.91;4898058;29;20094;-82
2023/10/31 08:44:33;;;;;;;39.45;23.35;;;;;;;10.22;100.00;99863.72;4914932;29;20491;-83
2023/10/31 08:46:58;;;;;;;34.63;21.48;;;;;;;10.22;100.00;99874.41;4914799;29;20397;-83
2023/10/31 08:49:24;;;;;;;38.33;24.05;;;;;;;10.13;100.00;99876.63;4914960;29;20028;-82
2023/10/31 08:51:49;;;;;;;35.00;22.00;;;;;;;10.08;100.00;99889.03;4897970;29;20077;-82
2023/10/31 08:54:14;;;;;;;33.10;21.58;;;;;;;9.85;100.00;99865.84;4914908;29;20155;-83
2023/10/31 08:56:40;;;;;;;40.58;22.70;;;;;;;10.16;100.00;99896.72;4914814;29;20477;-82
2023/10/31 08:59:05;;;;;;;41.75;22.63;;;;;;;10.32;100.00;99895.19;4897836;29;20106;-83
2023/10/31 09:01:30;;;;;;;39.13;22.63;;;;;;;10.35;100.00;99905.41;4914757;29;20032;-83
2023/10/31 09:03:58;;;;;;;38.95;23.55;;;;;;;10.31;100.00;99914.94;4897760;29;20033;-82
2023/10/31 09:06:23;;;;;;;36.13;23.05;;;;;;;10.83;100.00;99911.19;4897715;29;20048;-82
2023/10/31 09:08:49;;;;;;;34.85;21.05;;;;;;;10.73;100.00;99905.66;4914796;29;20036;-84
2023/10/31 09:11:15;;;;;;;31.60;18.38;;;;;;;10.64;100.00;99912.41;4914627;29;20538;-82
2023/10/31 09:13:40;;;;;;;34.10;19.23;;;;;;;10.71;100.00;99923.00;4914605;29;20036;-84
2023/10/31 09:16:06;;;;;;;38.00;21.92;;;;;;;10.57;100.00;99933.13;4915861;29;20032;-84
2023/10/31 09:18:31;;;;;;;37.20;21.38;;;;;;;10.50;100.00;99925.25;4917940;29;20028;-84
2023/10/31 09:20:57;;;;;;;31.08;18.10;;;;;;;10.64;100.00;99924.97;4917980;29;20542;-84
2023/10/31 09:23:22;;;;;;;36.65;22.70;;;;;;;10.55;100.00;99925.34;4900906;29;20397;-83
2023/10/31 09:25:48;;;;;;;37.13;23.20;;;;;;;10.70;100.00;99943.56;4900700;29;20032;-82
2023/10/31 09:28:13;;;;;;;36.85;22.52;;;;;;;11.23;100.00;99930.91;4900696;29;20166;-82
2023/10/31 09:30:38;;;;;;;34.45;20.52;;;;;;;11.68;100.00;99949.63;4900885;29;20072;-82
2023/10/31 09:33:03;;;;;;;30.83;19.17;;;;;;;11.40;100.00;99943.28;4917645;29;20091;-83
2023/10/31 09:35:29;;;;;;;31.38;19.92;;;;;;;11.18;100.00;99958.38;4917567;29;20280;-84
2023/10/31 09:37:55;;;;;;;34.78;18.75;;;;;;;10.78;100.00;99969.13;4900842;29;20269;-85
2023/10/31 09:40:21;;;;;;;31.75;18.30;;;;;;;10.87;100.00;99959.66;4917660;29;20477;-86
2023/10/31 09:42:47;;;;;;;33.33;19.08;;;;;;;10.92;100.00;99967.78;4917482;29;20039;-85
2023/10/31 09:45:13;;;;;;;30.27;19.23;;;;;;;10.99;100.00;99970.34;4918119;29;20171;-85
2023/10/31 09:47:41;;;;;;;32.28;19.90;;;;;;;10.94;100.00;99978.25;4916304;29;20032;-83
2023/10/31 09:50:09;;;;;;;35.03;20.73;;;;;;;11.03;100.00;99966.94;4918121;29;20032;-81
2023/10/31 09:52:35;;;;;;;35.53;22.70;;;;;;;11.19;100.00;99978.75;4918137;29;20032;-82
2023/10/31 09:55:01;;;;;;;31.92;19.08;;;;;;;10.92;100.00;99983.03;4900773;29;20036;-82
2023/10/31 09:57:26;;;;;;;34.47;21.02;;;;;;;10.70;100.00;99989.03;4917551;29;20039;-80
2023/10/31 09:59:52;;;;;;;33.05;19.65;;;;;;;10.46;100.00;99990.09;4917299;29;20083;-82
2023/10/31 10:02:17;;;;;;;33.80;20.92;;;;;;;10.43;100.00;99987.91;4917385;29;20083;-82
2023/10/31 10:04:43;;;;;;;29.65;18.02;;;;;;;10.49;100.00;99989.63;4917504;29;20474;-81
2023/10/31 10:07:09;;;;;;;30.10;17.55;;;;;;;10.51;100.00;99991.03;4918060;29;20532;-81
2023/10/31 10:09:34;;;;;;;33.25;19.63;;;;;;;10.55;100.00;99999.38;4900489;29;20091;-81
2023/10/31 10:12:00;;;;;;;31.00;18.92;;;;;;;10.64;100.00;99997.97;4900493;29;20035;-79
2023/10/31 10:14:28;;;;;;;32.05;19.75;;;;;;;10.60;100.00;100001.34;4917519;29;20051;-81
2023/10/31 10:16:54;;;;;;;32.00;20.30;;;;;;;10.64;100.00;100023.88;4917220;29;20028;-80
2023/10/31 10:19:21;;;;;;;31.58;20.80;;;;;;;10.68;100.00;100020.50;4917056;29;20437;-80
2023/10/31 10:21:51;;;;;;;29.45;17.70;;;;;;;10.80;100.00;100024.00;4917253;29;20024;-82
2023/10/31 10:24:18;;;;;;;30.60;19.05;;;;;;;10.86;100.00;100016.88;4901162;29;20079;-82
2023/10/31 10:26:44;;;;;;;30.80;18.35;;;;;;;11.00;100.00;100023.59;4901010;29;20059;-82
2023/10/31 10:29:09;;;;;;;30.70;17.90;;;;;;;11.00;100.00;100022.78;4900044;29;20438;-82
2023/10/31 10:31:35;;;;;;;22.25;14.63;;;;;;;10.99;100.00;100021.16;4900190;29;20119;-82
2023/10/31 10:40:34;;;;;;;34.13;17.45;;;;;;;10.34;100.00;100008.81;4916963;29;20047;-83
2023/10/31 10:43:07;;;;;;;27.52;15.07;;;;;;;10.19;100.00;99990.56;4899349;29;20366;-84
2023/10/31 10:46:40;;;;;;;29.10;16.45;;;;;;;10.17;100.00;99991.84;4900409;29;20032;-84
2023/10/31 11:09:31;;;;;;;26.20;15.35;;;;;;;11.15;100.00;100058.69;4853619;29;20046;-82
2023/10/31 11:11:57;;;;;;;26.05;14.82;;;;;;;11.05;100.00;100061.16;4901012;29;20123;-83
2023/10/31 11:14:23;;;;;;;24.10;15.00;;;;;;;10.80;100.00;100047.25;4916743;29;20036;-83
2023/10/31 11:16:53;;;;;;;23.30;14.73;;;;;;;10.96;100.00;100059.88;4916585;29;20040;-84
2023/10/31 11:19:20;;;;;;;23.58;14.88;;;;;;;10.98;100.00;100051.63;4899081;29;20028;-83
2023/10/31 11:22:00;;;;;;;22.85;14.85;;;;;;;11.12;100.00;100056.47;4899117;29;20074;-83
2023/10/31 11:24:32;;;;;;;22.00;14.75;;;;;;;11.11;100.00;100070.91;4899021;29;20024;-82
2023/10/31 11:27:05;;;;;;;18.90;13.63;;;;;;;11.11;100.00;100064.75;4914978;29;20048;-84
2023/10/31 11:29:31;;;;;;;24.00;14.07;;;;;;;11.23;100.00;100075.41;4916076;29;20397;-83
2023/10/31 11:31:56;;;;;;;19.95;12.27;;;;;;;11.21;100.00;100056.91;4899530;29;20033;-84
2023/10/31 11:34:22;;;;;;;22.55;14.82;;;;;;;11.18;100.00;100063.56;4898992;29;20075;-83